sensor_id;sensor_type;location;lat;lon;timestamp;pressure;altitude;pressure_sealevel;temperature;humidity
44001;BME280;29660;42.892;24.710;2023-07-31T00:04:47;96513.50;;;20.91;100.00
44001;BME280;29660;42.892;24.710;2023-07-31T00:10:09;96647.66;;;21.53;100.00
44001;BME280;29660;42.892;24.710;2023-07-31T00:15:31;96596.16;;;21.57;100.00
44001;BME280;29660;42.892;24.710;2023-07-31T00:20:54;96597.75;;;21.58;100.00
44001;BME280;29660;42.892;24.710;2023-07-31T00:26:16;96590.56;;;21.43;100.00
44001;BME280;29660;42.892;24.710;2023-07-31T00:31:38;96614.97;;;21.43;100.00
44001;BME280;29660;42.892;24.710;2023-07-31T00:37:00;96542.28;;;20.99;100.00
44001;BME280;29660;42.892;24.710;2023-07-31T00:42:24;96600.88;;;21.33;100.00
44001;BME280;29660;42.892;24.710;2023-07-31T00:47:46;96586.97;;;21.35;100.00
44001;BME280;29660;42.892;24.710;2023-07-31T00:53:09;96577.00;;;21.43;100.00
44001;BME280;29660;42.892;24.710;2023-07-31T00:58:31;96182.31;;;18.81;100.00
44001;BME280;29660;42.892;24.710;2023-07-31T01:03:53;96500.97;;;20.82;100.00
44001;BME280;29660;42.892;24.710;2023-07-31T01:09:27;96423.63;;;20.35;100.00
44001;BME280;29660;42.892;24.710;2023-07-31T01:15:08;96461.78;;;20.50;100.00
44001;BME280;29660;42.892;24.710;2023-07-31T01:20:35;96505.47;;;20.71;100.00
44001;BME280;29660;42.892;24.710;2023-07-31T01:26:15;96442.69;;;20.43;100.00
44001;BME280;29660;42.892;24.710;2023-07-31T01:31:41;96422.91;;;20.39;100.00
44001;BME280;29660;42.892;24.710;2023-07-31T01:37:06;96518.16;;;21.20;100.00
44001;BME280;29660;42.892;24.710;2023-07-31T01:42:29;96522.66;;;21.09;100.00
44001;BME280;29660;42.892;24.710;2023-07-31T01:47:51;96514.19;;;21.14;100.00
44001;BME280;29660;42.892;24.710;2023-07-31T01:53:13;96509.81;;;21.06;100.00
44001;BME280;29660;42.892;24.710;2023-07-31T01:58:35;96502.44;;;21.03;100.00
44001;BME280;29660;42.892;24.710;2023-07-31T02:03:57;96502.69;;;20.94;100.00
44001;BME280;29660;42.892;24.710;2023-07-31T02:09:20;96499.53;;;20.89;100.00
44001;BME280;29660;42.892;24.710;2023-07-31T02:14:42;96370.50;;;20.01;100.00
44001;BME280;29660;42.892;24.710;2023-07-31T02:20:05;96501.81;;;20.87;100.00
44001;BME280;29660;42.892;24.710;2023-07-31T02:25:28;96501.78;;;20.83;100.00
44001;BME280;29660;42.892;24.710;2023-07-31T02:30:50;96503.28;;;20.80;100.00
44001;BME280;29660;42.892;24.710;2023-07-31T02:36:13;96513.28;;;20.76;100.00
44001;BME280;29660;42.892;24.710;2023-07-31T02:41:36;96376.28;;;19.76;100.00
44001;BME280;29660;42.892;24.710;2023-07-31T02:46:58;96532.47;;;20.64;100.00
44001;BME280;29660;42.892;24.710;2023-07-31T02:52:20;96427.75;;;20.03;100.00
44001;BME280;29660;42.892;24.710;2023-07-31T02:57:42;96398.22;;;19.71;100.00
44001;BME280;29660;42.892;24.710;2023-07-31T03:03:05;96551.16;;;20.73;100.00
44001;BME280;29660;42.892;24.710;2023-07-31T03:08:27;96556.66;;;20.76;100.00
44001;BME280;29660;42.892;24.710;2023-07-31T03:13:49;96570.19;;;20.76;100.00
44001;BME280;29660;42.892;24.710;2023-07-31T03:19:11;96555.81;;;20.72;100.00
44001;BME280;29660;42.892;24.710;2023-07-31T03:24:33;96468.97;;;19.93;100.00
44001;BME280;29660;42.892;24.710;2023-07-31T03:29:55;96573.44;;;20.63;100.00
44001;BME280;29660;42.892;24.710;2023-07-31T03:35:18;96509.03;;;20.06;100.00
44001;BME280;29660;42.892;24.710;2023-07-31T03:40:40;96538.09;;;20.32;100.00
44001;BME280;29660;42.892;24.710;2023-07-31T03:46:02;96543.16;;;20.34;100.00
44001;BME280;29660;42.892;24.710;2023-07-31T03:51:25;96482.78;;;19.88;100.00
44001;BME280;29660;42.892;24.710;2023-07-31T03:56:47;96575.69;;;20.57;100.00
44001;BME280;29660;42.892;24.710;2023-07-31T04:02:09;96533.88;;;20.35;100.00
44001;BME280;29660;42.892;24.710;2023-07-31T04:07:32;96582.84;;;20.69;100.00
44001;BME280;29660;42.892;24.710;2023-07-31T04:12:54;96587.38;;;20.61;100.00
44001;BME280;29660;42.892;24.710;2023-07-31T04:18:16;96588.59;;;20.64;100.00
44001;BME280;29660;42.892;24.710;2023-07-31T04:23:38;96483.94;;;19.86;100.00
44001;BME280;29660;42.892;24.710;2023-07-31T04:29:00;96564.50;;;20.39;100.00
44001;BME280;29660;42.892;24.710;2023-07-31T04:34:23;96591.34;;;20.67;100.00
44001;BME280;29660;42.892;24.710;2023-07-31T04:39:45;96571.31;;;20.29;100.00
44001;BME280;29660;42.892;24.710;2023-07-31T04:45:08;96544.09;;;20.22;100.00
44001;BME280;29660;42.892;24.710;2023-07-31T04:50:30;96604.03;;;20.63;100.00
44001;BME280;29660;42.892;24.710;2023-07-31T04:55:52;96615.75;;;20.67;100.00
44001;BME280;29660;42.892;24.710;2023-07-31T05:01:15;96550.50;;;20.33;100.00
44001;BME280;29660;42.892;24.710;2023-07-31T05:06:37;96614.72;;;20.75;100.00
44001;BME280;29660;42.892;24.710;2023-07-31T05:11:59;96545.91;;;20.38;100.00
44001;BME280;29660;42.892;24.710;2023-07-31T05:17:21;96579.19;;;20.57;100.00
44001;BME280;29660;42.892;24.710;2023-07-31T05:22:44;96518.25;;;20.25;100.00
44001;BME280;29660;42.892;24.710;2023-07-31T05:28:06;96624.44;;;21.03;100.00
44001;BME280;29660;42.892;24.710;2023-07-31T05:33:28;96594.97;;;21.01;100.00
44001;BME280;29660;42.892;24.710;2023-07-31T05:38:50;96626.47;;;21.09;100.00
44001;BME280;29660;42.892;24.710;2023-07-31T05:44:12;96623.09;;;21.16;100.00
44001;BME280;29660;42.892;24.710;2023-07-31T05:49:34;96622.00;;;21.21;100.00
44001;BME280;29660;42.892;24.710;2023-07-31T05:54:57;96580.63;;;21.27;100.00
44001;BME280;29660;42.892;24.710;2023-07-31T06:00:19;96621.00;;;21.89;100.00
44001;BME280;29660;42.892;24.710;2023-07-31T06:05:42;96593.88;;;21.89;100.00
44001;BME280;29660;42.892;24.710;2023-07-31T06:11:04;96586.97;;;21.99;100.00
44001;BME280;29660;42.892;24.710;2023-07-31T06:16:27;96606.41;;;22.35;100.00
44001;BME280;29660;42.892;24.710;2023-07-31T06:21:49;96588.31;;;22.49;100.00
44001;BME280;29660;42.892;24.710;2023-07-31T06:27:12;96616.56;;;22.86;100.00
44001;BME280;29660;42.892;24.710;2023-07-31T06:32:34;96550.47;;;22.78;100.00
44001;BME280;29660;42.892;24.710;2023-07-31T06:37:56;96606.16;;;23.50;100.00
44001;BME280;29660;42.892;24.710;2023-07-31T06:43:19;96580.66;;;23.76;100.00
44001;BME280;29660;42.892;24.710;2023-07-31T06:48:41;96597.13;;;24.15;100.00
44001;BME280;29660;42.892;24.710;2023-07-31T06:54:03;96605.03;;;24.45;100.00
44001;BME280;29660;42.892;24.710;2023-07-31T06:59:25;96527.38;;;23.89;100.00
44001;BME280;29660;42.892;24.710;2023-07-31T07:04:48;96603.78;;;24.36;92.48
44001;BME280;29660;42.892;24.710;2023-07-31T07:10:11;96616.63;;;24.32;95.00
44001;BME280;29660;42.892;24.710;2023-07-31T07:15:33;96606.56;;;24.46;91.55
44001;BME280;29660;42.892;24.710;2023-07-31T07:20:56;96552.00;;;24.29;92.16
44001;BME280;29660;42.892;24.710;2023-07-31T07:26:20;96614.03;;;25.17;88.28
44001;BME280;29660;42.892;24.710;2023-07-31T07:31:42;96599.97;;;25.40;88.40
44001;BME280;29660;42.892;24.710;2023-07-31T07:37:04;96610.50;;;25.28;80.72
44001;BME280;29660;42.892;24.710;2023-07-31T07:42:26;96607.38;;;25.18;77.85
44001;BME280;29660;42.892;24.710;2023-07-31T07:47:49;96615.97;;;25.17;78.48
44001;BME280;29660;42.892;24.710;2023-07-31T07:53:11;96611.28;;;25.17;81.64
44001;BME280;29660;42.892;24.710;2023-07-31T07:58:33;96608.56;;;25.32;81.53
44001;BME280;29660;42.892;24.710;2023-07-31T08:03:55;96587.81;;;25.59;76.10
44001;BME280;29660;42.892;24.710;2023-07-31T08:09:17;96596.25;;;26.01;74.45
44001;BME280;29660;42.892;24.710;2023-07-31T08:14:40;96543.41;;;25.34;74.85
44001;BME280;29660;42.892;24.710;2023-07-31T08:20:02;96604.53;;;25.76;74.00
44001;BME280;29660;42.892;24.710;2023-07-31T08:25:25;96529.34;;;25.46;62.55
44001;BME280;29660;42.892;24.710;2023-07-31T08:30:47;96589.94;;;26.22;60.77
44001;BME280;29660;42.892;24.710;2023-07-31T08:36:09;96598.41;;;26.45;60.63
44001;BME280;29660;42.892;24.710;2023-07-31T08:41:37;96539.34;;;25.74;65.70
44001;BME280;29660;42.892;24.710;2023-07-31T08:47:00;96601.81;;;25.72;62.51
44001;BME280;29660;42.892;24.710;2023-07-31T08:52:23;96602.59;;;25.73;64.43
44001;BME280;29660;42.892;24.710;2023-07-31T08:57:46;96586.28;;;26.42;62.00
44001;BME280;29660;42.892;24.710;2023-07-31T09:03:09;96597.53;;;26.55;60.24
44001;BME280;29660;42.892;24.710;2023-07-31T09:08:35;96508.63;;;25.63;63.37
44001;BME280;29660;42.892;24.710;2023-07-31T09:13:59;96555.00;;;25.70;65.25
44001;BME280;29660;42.892;24.710;2023-07-31T09:19:28;96617.28;;;26.14;62.04
44001;BME280;29660;42.892;24.710;2023-07-31T09:24:51;96624.25;;;26.30;61.04
44001;BME280;29660;42.892;24.710;2023-07-31T09:30:14;96609.19;;;26.66;59.17
44001;BME280;29660;42.892;24.710;2023-07-31T09:35:36;96612.63;;;26.78;56.41
44001;BME280;29660;42.892;24.710;2023-07-31T09:41:05;96502.91;;;26.68;55.94
44001;BME280;29660;42.892;24.710;2023-07-31T09:46:27;96605.81;;;27.83;55.36
44001;BME280;29660;42.892;24.710;2023-07-31T09:51:49;96619.28;;;27.25;55.77
44001;BME280;29660;42.892;24.710;2023-07-31T09:57:12;96586.50;;;26.70;58.74
44001;BME280;29660;42.892;24.710;2023-07-31T10:02:36;96645.25;;;26.40;60.33
44001;BME280;29660;42.892;24.710;2023-07-31T10:07:59;96660.28;;;26.03;64.89
44001;BME280;29660;42.892;24.710;2023-07-31T10:13:22;96562.94;;;25.21;64.92
44001;BME280;29660;42.892;24.710;2023-07-31T10:18:44;96531.00;;;25.11;69.19
44001;BME280;29660;42.892;24.710;2023-07-31T10:24:07;96665.47;;;25.33;68.19
44001;BME280;29660;42.892;24.710;2023-07-31T10:29:31;96596.06;;;25.02;69.89
44001;BME280;29660;42.892;24.710;2023-07-31T10:34:54;96481.94;;;24.33;69.62
44001;BME280;29660;42.892;24.710;2023-07-31T10:40:19;96653.38;;;25.38;71.71
44001;BME280;29660;42.892;24.710;2023-07-31T10:45:44;96649.09;;;25.44;71.19
44001;BME280;29660;42.892;24.710;2023-07-31T10:51:10;96597.66;;;25.10;71.37
44001;BME280;29660;42.892;24.710;2023-07-31T10:56:37;96553.59;;;24.94;73.83
44001;BME280;29660;42.892;24.710;2023-07-31T11:02:00;96577.00;;;25.16;74.78
44001;BME280;29660;42.892;24.710;2023-07-31T11:07:24;96624.50;;;25.48;71.17
44001;BME280;29660;42.892;24.710;2023-07-31T11:12:47;96621.38;;;25.60;71.33
44001;BME280;29660;42.892;24.710;2023-07-31T11:18:09;96611.97;;;25.79;72.79
44001;BME280;29660;42.892;24.710;2023-07-31T11:23:32;96426.59;;;24.75;71.30
44001;BME280;29660;42.892;24.710;2023-07-31T11:28:55;96528.53;;;25.56;69.48
44001;BME280;29660;42.892;24.710;2023-07-31T11:34:17;96597.69;;;26.27;67.73
44001;BME280;29660;42.892;24.710;2023-07-31T11:39:42;96483.75;;;25.36;66.83
44001;BME280;29660;42.892;24.710;2023-07-31T11:45:05;96591.72;;;26.50;66.64
44001;BME280;29660;42.892;24.710;2023-07-31T11:50:28;96528.28;;;26.13;65.75
44001;BME280;29660;42.892;24.710;2023-07-31T11:55:51;96589.50;;;26.86;64.86
44001;BME280;29660;42.892;24.710;2023-07-31T12:01:15;96515.66;;;26.82;61.59
44001;BME280;29660;42.892;24.710;2023-07-31T12:06:39;96576.03;;;27.85;62.63
44001;BME280;29660;42.892;24.710;2023-07-31T12:12:02;96556.22;;;27.36;57.75
44001;BME280;29660;42.892;24.710;2023-07-31T12:17:29;96456.66;;;27.19;58.33
44001;BME280;29660;42.892;24.710;2023-07-31T12:22:51;96548.41;;;27.69;56.98
44001;BME280;29660;42.892;24.710;2023-07-31T12:28:13;96545.59;;;28.06;55.85
44001;BME280;29660;42.892;24.710;2023-07-31T12:33:37;96542.88;;;28.06;55.11
44001;BME280;29660;42.892;24.710;2023-07-31T12:39:00;96487.75;;;27.66;57.49
44001;BME280;29660;42.892;24.710;2023-07-31T12:44:22;96523.75;;;27.69;56.08
44001;BME280;29660;42.892;24.710;2023-07-31T12:49:44;96442.78;;;27.33;57.03
44001;BME280;29660;42.892;24.710;2023-07-31T12:55:07;96543.69;;;28.03;57.58
44001;BME280;29660;42.892;24.710;2023-07-31T13:00:29;96523.91;;;28.46;55.51
44001;BME280;29660;42.892;24.710;2023-07-31T13:05:51;96519.22;;;28.43;52.42
44001;BME280;29660;42.892;24.710;2023-07-31T13:11:14;96521.22;;;28.12;55.13
44001;BME280;29660;42.892;24.710;2023-07-31T13:16:36;96498.81;;;28.17;53.37
44001;BME280;29660;42.892;24.710;2023-07-31T13:21:59;96495.97;;;28.51;53.07
44001;BME280;29660;42.892;24.710;2023-07-31T13:27:21;96462.84;;;28.15;52.85
44001;BME280;29660;42.892;24.710;2023-07-31T13:32:43;96408.22;;;27.74;52.34
44001;BME280;29660;42.892;24.710;2023-07-31T13:38:06;96495.00;;;27.84;53.76
44001;BME280;29660;42.892;24.710;2023-07-31T13:43:28;96508.94;;;27.62;56.08
44001;BME280;29660;42.892;24.710;2023-07-31T13:48:51;96403.72;;;27.29;53.87
44001;BME280;29660;42.892;24.710;2023-07-31T13:54:16;96493.84;;;28.35;52.84
44001;BME280;29660;42.892;24.710;2023-07-31T13:59:38;96494.97;;;28.42;51.56
44001;BME280;29660;42.892;24.710;2023-07-31T14:05:01;96507.19;;;28.33;51.95
44001;BME280;29660;42.892;24.710;2023-07-31T14:10:23;96505.16;;;28.41;50.27
44001;BME280;29660;42.892;24.710;2023-07-31T14:15:45;96506.22;;;28.47;50.90
44001;BME280;29660;42.892;24.710;2023-07-31T14:21:07;96501.69;;;28.37;49.98
44001;BME280;29660;42.892;24.710;2023-07-31T14:26:29;96495.69;;;28.46;49.82
44001;BME280;29660;42.892;24.710;2023-07-31T14:31:52;96412.88;;;27.77;49.83
44001;BME280;29660;42.892;24.710;2023-07-31T14:37:14;96489.00;;;28.47;49.58
44001;BME280;29660;42.892;24.710;2023-07-31T14:42:37;96425.81;;;28.03;49.12
44001;BME280;29660;42.892;24.710;2023-07-31T14:47:59;96493.19;;;28.28;50.00
44001;BME280;29660;42.892;24.710;2023-07-31T14:53:21;96408.38;;;27.63;49.74
44001;BME280;29660;42.892;24.710;2023-07-31T14:58:43;96500.16;;;28.05;50.92
44001;BME280;29660;42.892;24.710;2023-07-31T15:04:06;96500.38;;;27.91;49.91
44001;BME280;29660;42.892;24.710;2023-07-31T15:09:28;96502.09;;;28.08;50.35
44001;BME280;29660;42.892;24.710;2023-07-31T15:14:50;96416.53;;;27.66;50.83
44001;BME280;29660;42.892;24.710;2023-07-31T15:20:13;96505.59;;;28.09;50.15
44001;BME280;29660;42.892;24.710;2023-07-31T15:25:36;96492.66;;;28.09;49.50
44001;BME280;29660;42.892;24.710;2023-07-31T15:30:58;96513.72;;;27.89;51.42
44001;BME280;29660;42.892;24.710;2023-07-31T15:36:20;96501.94;;;27.92;50.00
44001;BME280;29660;42.892;24.710;2023-07-31T15:41:42;96495.00;;;28.11;50.00
44001;BME280;29660;42.892;24.710;2023-07-31T15:47:05;96504.47;;;28.06;50.48
44001;BME280;29660;42.892;24.710;2023-07-31T15:52:27;96418.88;;;27.37;49.96
44001;BME280;29660;42.892;24.710;2023-07-31T15:57:49;96504.84;;;27.78;50.22
44001;BME280;29660;42.892;24.710;2023-07-31T16:03:11;96530.28;;;27.48;51.49
44001;BME280;29660;42.892;24.710;2023-07-31T16:08:34;96536.56;;;27.45;50.78
44001;BME280;29660;42.892;24.710;2023-07-31T16:14:02;96513.94;;;27.37;52.02
44001;BME280;29660;42.892;24.710;2023-07-31T16:19:24;96448.44;;;26.81;51.34
44001;BME280;29660;42.892;24.710;2023-07-31T16:24:49;96540.75;;;27.19;50.86
44001;BME280;29660;42.892;24.710;2023-07-31T16:30:12;96446.38;;;26.51;52.32
44001;BME280;29660;42.892;24.710;2023-07-31T16:35:35;96522.91;;;26.58;52.68
44001;BME280;29660;42.892;24.710;2023-07-31T16:40:57;96523.84;;;26.34;53.61
44001;BME280;29660;42.892;24.710;2023-07-31T16:46:19;96531.41;;;26.08;54.58
44001;BME280;29660;42.892;24.710;2023-07-31T16:51:41;96522.94;;;25.88;54.33
44001;BME280;29660;42.892;24.710;2023-07-31T16:57:04;96518.28;;;25.82;57.25
44001;BME280;29660;42.892;24.710;2023-07-31T17:02:26;96537.03;;;25.83;59.61
44001;BME280;29660;42.892;24.710;2023-07-31T17:07:48;96542.50;;;25.73;58.64
44001;BME280;29660;42.892;24.710;2023-07-31T17:13:10;96539.00;;;25.72;63.25
44001;BME280;29660;42.892;24.710;2023-07-31T17:18:32;96568.75;;;25.34;66.34
44001;BME280;29660;42.892;24.710;2023-07-31T17:23:55;96506.47;;;24.90;67.44
44001;BME280;29660;42.892;24.710;2023-07-31T17:29:17;96559.84;;;24.98;67.36
44001;BME280;29660;42.892;24.710;2023-07-31T17:34:39;96583.59;;;24.83;68.47
44001;BME280;29660;42.892;24.710;2023-07-31T17:40:02;96576.22;;;24.69;69.82
44001;BME280;29660;42.892;24.710;2023-07-31T17:45:24;96575.41;;;24.40;67.25
44001;BME280;29660;42.892;24.710;2023-07-31T17:50:52;96510.28;;;23.89;66.34
44001;BME280;29660;42.892;24.710;2023-07-31T17:56:14;96580.41;;;24.31;67.11
44001;BME280;29660;42.892;24.710;2023-07-31T18:01:37;96522.28;;;23.70;68.84
44001;BME280;29660;42.892;24.710;2023-07-31T18:06:59;96597.88;;;24.09;69.08
44001;BME280;29660;42.892;24.710;2023-07-31T18:12:21;96620.47;;;24.09;71.48
44001;BME280;29660;42.892;24.710;2023-07-31T18:17:43;96380.78;;;22.13;73.08
44001;BME280;29660;42.892;24.710;2023-07-31T18:23:06;96649.38;;;23.59;83.68
44001;BME280;29660;42.892;24.710;2023-07-31T18:28:28;96665.91;;;23.28;87.84
44001;BME280;29660;42.892;24.710;2023-07-31T18:33:50;96673.38;;;22.94;91.77
44001;BME280;29660;42.892;24.710;2023-07-31T18:39:13;96667.97;;;22.57;94.24
44001;BME280;29660;42.892;24.710;2023-07-31T18:44:35;96669.66;;;22.35;96.35
44001;BME280;29660;42.892;24.710;2023-07-31T18:49:58;96654.97;;;22.06;97.15
44001;BME280;29660;42.892;24.710;2023-07-31T18:55:21;96695.06;;;22.16;97.17
44001;BME280;29660;42.892;24.710;2023-07-31T19:00:44;96629.06;;;21.52;100.00
44001;BME280;29660;42.892;24.710;2023-07-31T19:06:06;96704.31;;;21.81;100.00
44001;BME280;29660;42.892;24.710;2023-07-31T19:11:29;96705.34;;;21.73;100.00
44001;BME280;29660;42.892;24.710;2023-07-31T19:16:54;96702.63;;;21.47;100.00
44001;BME280;29660;42.892;24.710;2023-07-31T19:22:16;96711.06;;;21.42;100.00
44001;BME280;29660;42.892;24.710;2023-07-31T19:27:38;96645.84;;;20.85;100.00
44001;BME280;29660;42.892;24.710;2023-07-31T19:33:02;96690.88;;;21.16;100.00
44001;BME280;29660;42.892;24.710;2023-07-31T19:38:25;96664.34;;;20.79;100.00
44001;BME280;29660;42.892;24.710;2023-07-31T19:43:47;96698.78;;;21.02;100.00
44001;BME280;29660;42.892;24.710;2023-07-31T19:49:10;96696.97;;;20.87;100.00
44001;BME280;29660;42.892;24.710;2023-07-31T19:54:32;96693.84;;;20.84;100.00
44001;BME280;29660;42.892;24.710;2023-07-31T19:59:54;96687.91;;;20.56;100.00
44001;BME280;29660;42.892;24.710;2023-07-31T20:05:16;96699.41;;;20.49;100.00
44001;BME280;29660;42.892;24.710;2023-07-31T20:10:38;96679.78;;;20.37;100.00
44001;BME280;29660;42.892;24.710;2023-07-31T20:16:01;96654.91;;;20.11;100.00
44001;BME280;29660;42.892;24.710;2023-07-31T20:21:23;96693.31;;;20.37;100.00
44001;BME280;29660;42.892;24.710;2023-07-31T20:26:45;96627.66;;;19.81;100.00
44001;BME280;29660;42.892;24.710;2023-07-31T20:32:07;96629.06;;;19.75;100.00
44001;BME280;29660;42.892;24.710;2023-07-31T20:37:30;96590.03;;;19.41;100.00
44001;BME280;29660;42.892;24.710;2023-07-31T20:42:59;96698.28;;;19.96;100.00
44001;BME280;29660;42.892;24.710;2023-07-31T20:48:21;96704.00;;;19.91;100.00
44001;BME280;29660;42.892;24.710;2023-07-31T20:53:43;96694.63;;;19.69;100.00
44001;BME280;29660;42.892;24.710;2023-07-31T20:59:05;96716.34;;;19.72;100.00
44001;BME280;29660;42.892;24.710;2023-07-31T21:04:27;96718.06;;;19.80;100.00
44001;BME280;29660;42.892;24.710;2023-07-31T21:09:51;96723.19;;;19.66;100.00
44001;BME280;29660;42.892;24.710;2023-07-31T21:15:13;96714.81;;;19.40;100.00
44001;BME280;29660;42.892;24.710;2023-07-31T21:20:36;96637.41;;;18.84;100.00
44001;BME280;29660;42.892;24.710;2023-07-31T21:25:59;96726.00;;;19.22;100.00
44001;BME280;29660;42.892;24.710;2023-07-31T21:31:21;96722.50;;;19.22;100.00
44001;BME280;29660;42.892;24.710;2023-07-31T21:36:43;96728.59;;;19.19;100.00
44001;BME280;29660;42.892;24.710;2023-07-31T21:42:06;96524.25;;;17.87;100.00
44001;BME280;29660;42.892;24.710;2023-07-31T21:47:29;96736.63;;;19.15;100.00
44001;BME280;29660;42.892;24.710;2023-07-31T21:52:51;96744.09;;;19.06;100.00
44001;BME280;29660;42.892;24.710;2023-07-31T21:58:14;96742.63;;;18.93;100.00
44001;BME280;29660;42.892;24.710;2023-07-31T22:03:36;96739.91;;;18.93;100.00
44001;BME280;29660;42.892;24.710;2023-07-31T22:08:59;96736.94;;;18.98;100.00
44001;BME280;29660;42.892;24.710;2023-07-31T22:14:21;96733.38;;;18.94;100.00
44001;BME280;29660;42.892;24.710;2023-07-31T22:19:43;96734.50;;;18.93;100.00
44001;BME280;29660;42.892;24.710;2023-07-31T22:25:05;96619.56;;;18.20;100.00
44001;BME280;29660;42.892;24.710;2023-07-31T22:30:28;96683.84;;;18.74;100.00
44001;BME280;29660;42.892;24.710;2023-07-31T22:35:50;96656.78;;;18.58;100.00
44001;BME280;29660;42.892;24.710;2023-07-31T22:41:12;96734.78;;;19.03;100.00
44001;BME280;29660;42.892;24.710;2023-07-31T22:46:34;96729.28;;;19.00;100.00
44001;BME280;29660;42.892;24.710;2023-07-31T22:51:57;96624.78;;;18.28;100.00
44001;BME280;29660;42.892;24.710;2023-07-31T22:57:19;96738.09;;;18.97;100.00
44001;BME280;29660;42.892;24.710;2023-07-31T23:02:41;96712.69;;;18.85;100.00
44001;BME280;29660;42.892;24.710;2023-07-31T23:08:03;96721.59;;;19.02;100.00
44001;BME280;29660;42.892;24.710;2023-07-31T23:13:25;96719.53;;;19.11;100.00
44001;BME280;29660;42.892;24.710;2023-07-31T23:18:47;96603.22;;;18.44;100.00
44001;BME280;29660;42.892;24.710;2023-07-31T23:24:10;96703.91;;;19.20;100.00
44001;BME280;29660;42.892;24.710;2023-07-31T23:29:32;96685.00;;;19.20;100.00
44001;BME280;29660;42.892;24.710;2023-07-31T23:34:56;96702.53;;;19.26;100.00
44001;BME280;29660;42.892;24.710;2023-07-31T23:40:18;96695.81;;;19.20;100.00
44001;BME280;29660;42.892;24.710;2023-07-31T23:45:40;96691.81;;;19.14;100.00
44001;BME280;29660;42.892;24.710;2023-07-31T23:51:03;96688.94;;;18.91;100.00
44001;BME280;29660;42.892;24.710;2023-07-31T23:56:25;96680.63;;;18.84;100.00
